Terminal Aerodrome Forecast
Issued by NWS

Home | Current Version | Previous Version | Text Only | Print | Product List | Glossary On
Versions: 1 2 3 4 5 6 7 8 9 10 11 12
000
FTUS44 KLIX 202339
TAFMSY
TAF
KMSY 202339Z 2100/2124 10014KT P6SM SCT030 BKN080 PROB30 2120/2124
      4SM TSRA OVC007CB=

USA.gov is the U.S. government's official web portal to all federal, state and local government web resources and services.